sensor_id;sensor_type;location;lat;lon;timestamp;pressure;altitude;pressure_sealevel;temperature;humidity
43436;BME280;36399;51.444;-2.018;2023-01-28T00:00:57;102523.81;;;-2.43;100.00
43436;BME280;36399;51.444;-2.018;2023-01-28T00:03:26;102532.28;;;-2.44;100.00
43436;BME280;36399;51.444;-2.018;2023-01-28T00:06:08;102531.81;;;-2.48;100.00
43436;BME280;36399;51.444;-2.018;2023-01-28T00:08:41;102531.81;;;-2.48;100.00
43436;BME280;36399;51.444;-2.018;2023-01-28T00:11:09;102533.19;;;-2.52;100.00
43436;BME280;36399;51.444;-2.018;2023-01-28T00:13:35;102528.81;;;-2.53;100.00
43436;BME280;36399;51.444;-2.018;2023-01-28T00:16:05;102535.63;;;-2.53;100.00
43436;BME280;36399;51.444;-2.018;2023-01-28T00:18:33;102535.91;;;-2.50;100.00
43436;BME280;36399;51.444;-2.018;2023-01-28T00:21:10;102543.75;;;-2.40;100.00
43436;BME280;36399;51.444;-2.018;2023-01-28T00:23:38;102548.00;;;-2.32;100.00
43436;BME280;36399;51.444;-2.018;2023-01-28T00:26:10;102543.44;;;-2.26;100.00
43436;BME280;36399;51.444;-2.018;2023-01-28T00:28:37;102550.97;;;-2.19;100.00
43436;BME280;36399;51.444;-2.018;2023-01-28T00:31:12;102545.66;;;-2.12;100.00
43436;BME280;36399;51.444;-2.018;2023-01-28T00:33:41;102538.84;;;-2.11;100.00
43436;BME280;36399;51.444;-2.018;2023-01-28T00:36:08;102549.63;;;-2.07;100.00
43436;BME280;36399;51.444;-2.018;2023-01-28T00:38:34;102555.06;;;-2.04;100.00
43436;BME280;36399;51.444;-2.018;2023-01-28T00:41:11;102549.75;;;-1.97;100.00
43436;BME280;36399;51.444;-2.018;2023-01-28T00:43:42;102560.63;;;-1.91;100.00
43436;BME280;36399;51.444;-2.018;2023-01-28T00:46:10;102550.34;;;-1.91;100.00
43436;BME280;36399;51.444;-2.018;2023-01-28T00:48:38;102551.19;;;-1.81;100.00
43436;BME280;36399;51.444;-2.018;2023-01-28T00:51:06;102548.16;;;-1.77;100.00
43436;BME280;36399;51.444;-2.018;2023-01-28T00:53:36;102552.69;;;-1.75;100.00
43436;BME280;36399;51.444;-2.018;2023-01-28T00:56:04;102559.94;;;-1.71;100.00
43436;BME280;36399;51.444;-2.018;2023-01-28T00:58:31;102557.81;;;-1.66;100.00
43436;BME280;36399;51.444;-2.018;2023-01-28T01:01:27;102550.22;;;-1.56;100.00
43436;BME280;36399;51.444;-2.018;2023-01-28T01:03:54;102557.00;;;-1.48;100.00
43436;BME280;36399;51.444;-2.018;2023-01-28T01:06:34;102548.03;;;-1.43;100.00
43436;BME280;36399;51.444;-2.018;2023-01-28T01:09:04;102551.16;;;-1.37;100.00
43436;BME280;36399;51.444;-2.018;2023-01-28T01:11:31;102552.78;;;-1.29;100.00
43436;BME280;36399;51.444;-2.018;2023-01-28T01:13:58;102565.00;;;-1.17;100.00
43436;BME280;36399;51.444;-2.018;2023-01-28T01:16:27;102565.28;;;-1.14;100.00
43436;BME280;36399;51.444;-2.018;2023-01-28T01:18:55;102552.88;;;-1.18;100.00
43436;BME280;36399;51.444;-2.018;2023-01-28T01:21:24;102550.31;;;-1.18;100.00
43436;BME280;36399;51.444;-2.018;2023-01-28T01:23:54;102538.75;;;-1.13;100.00
43436;BME280;36399;51.444;-2.018;2023-01-28T01:26:28;102534.50;;;-1.13;100.00
43436;BME280;36399;51.444;-2.018;2023-01-28T01:28:54;102531.16;;;-1.12;100.00
43436;BME280;36399;51.444;-2.018;2023-01-28T01:31:21;102533.78;;;-1.20;100.00
43436;BME280;36399;51.444;-2.018;2023-01-28T01:33:49;102533.03;;;-1.19;100.00
43436;BME280;36399;51.444;-2.018;2023-01-28T01:39:01;102528.84;;;-1.09;100.00
43436;BME280;36399;51.444;-2.018;2023-01-28T01:41:31;102524.47;;;-1.10;100.00
43436;BME280;36399;51.444;-2.018;2023-01-28T01:44:01;102524.19;;;-1.13;100.00
43436;BME280;36399;51.444;-2.018;2023-01-28T01:46:39;102516.94;;;-1.17;100.00
43436;BME280;36399;51.444;-2.018;2023-01-28T01:54:12;102522.72;;;-1.19;100.00
43436;BME280;36399;51.444;-2.018;2023-01-28T01:56:41;102523.75;;;-1.17;100.00
43436;BME280;36399;51.444;-2.018;2023-01-28T01:59:13;102532.59;;;-1.24;100.00
43436;BME280;36399;51.444;-2.018;2023-01-28T02:01:40;102532.19;;;-1.29;100.00
43436;BME280;36399;51.444;-2.018;2023-01-28T02:04:14;102536.16;;;-1.32;100.00
43436;BME280;36399;51.444;-2.018;2023-01-28T02:06:47;102542.97;;;-1.33;100.00
43436;BME280;36399;51.444;-2.018;2023-01-28T02:09:42;102532.22;;;-1.37;100.00
43436;BME280;36399;51.444;-2.018;2023-01-28T02:34:42;102545.44;;;-1.43;100.00
43436;BME280;36399;51.444;-2.018;2023-01-28T02:37:14;102548.78;;;-1.44;100.00
43436;BME280;36399;51.444;-2.018;2023-01-28T02:42:33;102560.09;;;-1.33;100.00
43436;BME280;36399;51.444;-2.018;2023-01-28T02:47:40;102561.84;;;-1.23;100.00
43436;BME280;36399;51.444;-2.018;2023-01-28T02:50:33;102557.28;;;-1.17;100.00
43436;BME280;36399;51.444;-2.018;2023-01-28T02:53:29;102571.50;;;-1.12;100.00
43436;BME280;36399;51.444;-2.018;2023-01-28T03:04:22;102562.50;;;-0.80;100.00
43436;BME280;36399;51.444;-2.018;2023-01-28T03:09:28;102583.13;;;-0.80;100.00
43436;BME280;36399;51.444;-2.018;2023-01-28T03:34:13;102576.78;;;-0.83;100.00
43436;BME280;36399;51.444;-2.018;2023-01-28T03:37:01;102568.97;;;-0.75;100.00
43436;BME280;36399;51.444;-2.018;2023-01-28T03:47:15;102553.16;;;-0.69;100.00
43436;BME280;36399;51.444;-2.018;2023-01-28T03:49:43;102543.75;;;-0.69;100.00
43436;BME280;36399;51.444;-2.018;2023-01-28T03:52:26;102544.22;;;-0.73;100.00
43436;BME280;36399;51.444;-2.018;2023-01-28T03:54:53;102542.41;;;-0.74;100.00
43436;BME280;36399;51.444;-2.018;2023-01-28T03:57:21;102540.41;;;-0.68;100.00
43436;BME280;36399;51.444;-2.018;2023-01-28T04:02:23;102538.91;;;-0.55;100.00
43436;BME280;36399;51.444;-2.018;2023-01-28T04:13:21;102530.00;;;-0.78;100.00
43436;BME280;36399;51.444;-2.018;2023-01-28T04:31:43;102511.47;;;-0.74;100.00
43436;BME280;36399;51.444;-2.018;2023-01-28T04:58:45;102525.69;;;-0.87;100.00
43436;BME280;36399;51.444;-2.018;2023-01-28T05:01:11;102517.69;;;-0.90;100.00
43436;BME280;36399;51.444;-2.018;2023-01-28T05:03:37;102521.66;;;-0.94;100.00
43436;BME280;36399;51.444;-2.018;2023-01-28T05:06:04;102522.28;;;-0.97;100.00
43436;BME280;36399;51.444;-2.018;2023-01-28T05:16:38;102524.78;;;-0.88;100.00
43436;BME280;36399;51.444;-2.018;2023-01-28T05:19:05;102526.75;;;-0.85;100.00
43436;BME280;36399;51.444;-2.018;2023-01-28T05:21:31;102528.19;;;-0.79;100.00
43436;BME280;36399;51.444;-2.018;2023-01-28T05:38:04;102524.06;;;-0.58;100.00
43436;BME280;36399;51.444;-2.018;2023-01-28T05:43:06;102529.66;;;-0.53;100.00
43436;BME280;36399;51.444;-2.018;2023-01-28T05:50:47;102522.47;;;-0.47;100.00
43436;BME280;36399;51.444;-2.018;2023-01-28T05:53:17;102524.84;;;-0.40;100.00
43436;BME280;36399;51.444;-2.018;2023-01-28T05:58:21;102516.59;;;-0.36;100.00
43436;BME280;36399;51.444;-2.018;2023-01-28T06:00:48;102521.75;;;-0.36;100.00
43436;BME280;36399;51.444;-2.018;2023-01-28T06:03:14;102517.09;;;-0.40;100.00
43436;BME280;36399;51.444;-2.018;2023-01-28T06:05:40;102519.31;;;-0.35;100.00
43436;BME280;36399;51.444;-2.018;2023-01-28T06:08:06;102523.56;;;-0.35;100.00
43436;BME280;36399;51.444;-2.018;2023-01-28T06:10:35;102522.34;;;-0.20;100.00
43436;BME280;36399;51.444;-2.018;2023-01-28T06:15:39;102523.22;;;-0.29;100.00
43436;BME280;36399;51.444;-2.018;2023-01-28T06:20:41;102509.06;;;-0.14;100.00
43436;BME280;36399;51.444;-2.018;2023-01-28T06:42:26;102506.91;;;-0.57;100.00
43436;BME280;36399;51.444;-2.018;2023-01-28T06:44:58;102506.16;;;-0.56;100.00
43436;BME280;36399;51.444;-2.018;2023-01-28T06:47:27;102507.81;;;-0.57;100.00
43436;BME280;36399;51.444;-2.018;2023-01-28T06:49:54;102511.03;;;-0.59;100.00
43436;BME280;36399;51.444;-2.018;2023-01-28T06:52:20;102511.03;;;-0.59;100.00
43436;BME280;36399;51.444;-2.018;2023-01-28T06:57:22;102504.06;;;-0.60;100.00
43436;BME280;36399;51.444;-2.018;2023-01-28T06:59:48;102494.53;;;-0.61;100.00
43436;BME280;36399;51.444;-2.018;2023-01-28T07:02:18;102499.69;;;-0.61;100.00
43436;BME280;36399;51.444;-2.018;2023-01-28T07:07:31;102509.50;;;-0.57;100.00
43436;BME280;36399;51.444;-2.018;2023-01-28T07:15:10;102522.22;;;-0.50;100.00
43436;BME280;36399;51.444;-2.018;2023-01-28T07:17:41;102514.75;;;-0.47;100.00
43436;BME280;36399;51.444;-2.018;2023-01-28T09:16:39;102558.31;;;1.06;100.00
43436;BME280;36399;51.444;-2.018;2023-01-28T10:05:43;102448.88;;;2.13;100.00
43436;BME280;36399;51.444;-2.018;2023-01-28T14:55:22;102274.91;;;5.31;100.00
43436;BME280;36399;51.444;-2.018;2023-01-28T14:57:53;102282.63;;;5.29;100.00
43436;BME280;36399;51.444;-2.018;2023-01-28T15:02:49;102294.03;;;5.18;100.00
43436;BME280;36399;51.444;-2.018;2023-01-28T15:05:24;102291.56;;;5.06;100.00
43436;BME280;36399;51.444;-2.018;2023-01-28T15:07:50;102301.69;;;5.02;100.00
43436;BME280;36399;51.444;-2.018;2023-01-28T15:10:24;102302.78;;;4.92;100.00
43436;BME280;36399;51.444;-2.018;2023-01-28T15:12:57;102305.59;;;4.95;100.00
43436;BME280;36399;51.444;-2.018;2023-01-28T15:15:39;102303.38;;;5.01;100.00
43436;BME280;36399;51.444;-2.018;2023-01-28T15:18:19;102304.88;;;4.98;100.00
43436;BME280;36399;51.444;-2.018;2023-01-28T15:20:52;102291.59;;;4.93;100.00
43436;BME280;36399;51.444;-2.018;2023-01-28T15:23:33;102287.69;;;4.87;100.00
43436;BME280;36399;51.444;-2.018;2023-01-28T15:26:04;102290.47;;;4.90;100.00
43436;BME280;36399;51.444;-2.018;2023-01-28T15:28:33;102291.38;;;4.90;100.00
43436;BME280;36399;51.444;-2.018;2023-01-28T15:31:00;102294.59;;;4.86;100.00
43436;BME280;36399;51.444;-2.018;2023-01-28T15:33:26;102289.19;;;4.83;100.00
43436;BME280;36399;51.444;-2.018;2023-01-28T15:35:56;102284.00;;;4.83;100.00
43436;BME280;36399;51.444;-2.018;2023-01-28T15:38:26;102291.59;;;4.80;100.00
43436;BME280;36399;51.444;-2.018;2023-01-28T15:40:58;102284.41;;;4.76;100.00
43436;BME280;36399;51.444;-2.018;2023-01-28T15:43:26;102280.19;;;4.78;100.00
43436;BME280;36399;51.444;-2.018;2023-01-28T15:45:55;102280.69;;;4.72;100.00
43436;BME280;36399;51.444;-2.018;2023-01-28T15:48:27;102284.78;;;4.69;100.00
43436;BME280;36399;51.444;-2.018;2023-01-28T15:50:58;102281.59;;;4.73;100.00
43436;BME280;36399;51.444;-2.018;2023-01-28T15:53:50;102282.75;;;4.65;100.00
43436;BME280;36399;51.444;-2.018;2023-01-28T15:56:14;102281.97;;;4.66;100.00
43436;BME280;36399;51.444;-2.018;2023-01-28T15:58:41;102275.56;;;4.61;100.00
43436;BME280;36399;51.444;-2.018;2023-01-28T16:03:34;102277.56;;;4.52;100.00
43436;BME280;36399;51.444;-2.018;2023-01-28T16:06:05;102286.75;;;4.47;100.00
43436;BME280;36399;51.444;-2.018;2023-01-28T16:08:41;102290.16;;;4.46;100.00
43436;BME280;36399;51.444;-2.018;2023-01-28T16:11:10;102293.34;;;4.41;100.00
43436;BME280;36399;51.444;-2.018;2023-01-28T16:13:41;102296.16;;;4.44;100.00
43436;BME280;36399;51.444;-2.018;2023-01-28T16:16:08;102292.34;;;4.39;100.00
43436;BME280;36399;51.444;-2.018;2023-01-28T16:18:47;102300.97;;;4.38;100.00
43436;BME280;36399;51.444;-2.018;2023-01-28T16:21:41;102304.75;;;4.30;100.00
43436;BME280;36399;51.444;-2.018;2023-01-28T16:24:26;102300.94;;;4.25;100.00
43436;BME280;36399;51.444;-2.018;2023-01-28T16:27:17;102303.13;;;4.19;100.00
43436;BME280;36399;51.444;-2.018;2023-01-28T16:29:44;102308.06;;;4.16;100.00
43436;BME280;36399;51.444;-2.018;2023-01-28T16:32:45;102305.06;;;4.10;100.00
43436;BME280;36399;51.444;-2.018;2023-01-28T16:35:15;102304.84;;;4.07;100.00
43436;BME280;36399;51.444;-2.018;2023-01-28T16:37:46;102306.25;;;4.02;100.00
43436;BME280;36399;51.444;-2.018;2023-01-28T16:40:18;102305.03;;;3.97;100.00
43436;BME280;36399;51.444;-2.018;2023-01-28T16:42:44;102307.34;;;4.05;100.00
43436;BME280;36399;51.444;-2.018;2023-01-28T16:45:18;102304.44;;;4.01;100.00
43436;BME280;36399;51.444;-2.018;2023-01-28T16:47:44;102304.81;;;3.94;100.00
43436;BME280;36399;51.444;-2.018;2023-01-28T16:50:11;102310.59;;;3.90;100.00
43436;BME280;36399;51.444;-2.018;2023-01-28T16:52:42;102305.88;;;3.84;100.00
43436;BME280;36399;51.444;-2.018;2023-01-28T16:55:13;102308.81;;;3.89;100.00
43436;BME280;36399;51.444;-2.018;2023-01-28T16:57:40;102310.19;;;3.84;100.00
43436;BME280;36399;51.444;-2.018;2023-01-28T17:00:10;102311.78;;;3.82;100.00
43436;BME280;36399;51.444;-2.018;2023-01-28T17:02:41;102302.88;;;3.78;100.00
43436;BME280;36399;51.444;-2.018;2023-01-28T17:05:08;102299.25;;;3.76;100.00
43436;BME280;36399;51.444;-2.018;2023-01-28T17:07:36;102299.38;;;3.77;100.00
43436;BME280;36399;51.444;-2.018;2023-01-28T17:10:03;102304.66;;;3.79;100.00
43436;BME280;36399;51.444;-2.018;2023-01-28T17:12:29;102298.47;;;3.77;100.00
43436;BME280;36399;51.444;-2.018;2023-01-28T17:14:55;102309.34;;;3.71;100.00
43436;BME280;36399;51.444;-2.018;2023-01-28T17:17:21;102304.84;;;3.69;100.00
43436;BME280;36399;51.444;-2.018;2023-01-28T17:19:47;102314.53;;;3.71;100.00
43436;BME280;36399;51.444;-2.018;2023-01-28T17:22:13;102318.63;;;3.68;100.00
43436;BME280;36399;51.444;-2.018;2023-01-28T17:24:39;102326.28;;;3.66;100.00
43436;BME280;36399;51.444;-2.018;2023-01-28T17:27:05;102322.91;;;3.67;100.00
43436;BME280;36399;51.444;-2.018;2023-01-28T17:29:31;102317.72;;;3.67;100.00
43436;BME280;36399;51.444;-2.018;2023-01-28T17:31:57;102324.59;;;3.67;100.00
43436;BME280;36399;51.444;-2.018;2023-01-28T17:34:24;102326.06;;;3.63;100.00
43436;BME280;36399;51.444;-2.018;2023-01-28T17:36:50;102329.44;;;3.62;100.00
43436;BME280;36399;51.444;-2.018;2023-01-28T17:39:16;102331.81;;;3.59;100.00
43436;BME280;36399;51.444;-2.018;2023-01-28T17:41:42;102332.63;;;3.58;100.00
43436;BME280;36399;51.444;-2.018;2023-01-28T17:44:11;102322.91;;;3.56;100.00
43436;BME280;36399;51.444;-2.018;2023-01-28T17:46:39;102334.41;;;3.59;100.00
43436;BME280;36399;51.444;-2.018;2023-01-28T17:49:05;102332.19;;;3.52;100.00
43436;BME280;36399;51.444;-2.018;2023-01-28T17:51:31;102330.38;;;3.51;100.00
43436;BME280;36399;51.444;-2.018;2023-01-28T17:53:57;102322.59;;;3.51;100.00
43436;BME280;36399;51.444;-2.018;2023-01-28T17:56:25;102323.16;;;3.47;100.00
43436;BME280;36399;51.444;-2.018;2023-01-28T17:58:53;102316.88;;;3.43;100.00
43436;BME280;36399;51.444;-2.018;2023-01-28T18:01:20;102320.25;;;3.42;100.00
43436;BME280;36399;51.444;-2.018;2023-01-28T18:03:47;102311.44;;;3.40;100.00
43436;BME280;36399;51.444;-2.018;2023-01-28T18:06:12;102306.94;;;3.38;100.00
43436;BME280;36399;51.444;-2.018;2023-01-28T18:08:38;102312.34;;;3.41;100.00
43436;BME280;36399;51.444;-2.018;2023-01-28T18:11:09;102305.47;;;3.41;100.00
43436;BME280;36399;51.444;-2.018;2023-01-28T18:13:36;102312.56;;;3.44;100.00
43436;BME280;36399;51.444;-2.018;2023-01-28T18:16:04;102305.31;;;3.52;100.00
43436;BME280;36399;51.444;-2.018;2023-01-28T18:18:30;102300.03;;;3.50;100.00
43436;BME280;36399;51.444;-2.018;2023-01-28T18:21:00;102302.81;;;3.53;100.00
43436;BME280;36399;51.444;-2.018;2023-01-28T18:23:27;102292.44;;;3.53;100.00
43436;BME280;36399;51.444;-2.018;2023-01-28T18:26:01;102290.84;;;3.55;100.00
43436;BME280;36399;51.444;-2.018;2023-01-28T18:28:28;102305.22;;;3.50;100.00
43436;BME280;36399;51.444;-2.018;2023-01-28T18:30:54;102305.78;;;3.46;100.00
43436;BME280;36399;51.444;-2.018;2023-01-28T18:33:22;102304.88;;;3.45;100.00
43436;BME280;36399;51.444;-2.018;2023-01-28T18:35:48;102310.88;;;3.44;100.00
43436;BME280;36399;51.444;-2.018;2023-01-28T18:38:14;102301.06;;;3.40;100.00
43436;BME280;36399;51.444;-2.018;2023-01-28T18:40:43;102310.34;;;3.37;100.00
43436;BME280;36399;51.444;-2.018;2023-01-28T18:43:10;102323.09;;;3.34;100.00
43436;BME280;36399;51.444;-2.018;2023-01-28T18:45:38;102313.50;;;3.33;100.00
43436;BME280;36399;51.444;-2.018;2023-01-28T18:48:04;102317.91;;;3.34;100.00
43436;BME280;36399;51.444;-2.018;2023-01-28T18:50:30;102310.13;;;3.34;100.00
43436;BME280;36399;51.444;-2.018;2023-01-28T18:52:56;102311.03;;;3.34;100.00
43436;BME280;36399;51.444;-2.018;2023-01-28T18:55:22;102317.69;;;3.31;100.00
43436;BME280;36399;51.444;-2.018;2023-01-28T18:57:48;102315.31;;;3.34;100.00
43436;BME280;36399;51.444;-2.018;2023-01-28T19:00:17;102323.19;;;3.35;100.00
43436;BME280;36399;51.444;-2.018;2023-01-28T19:02:43;102315.53;;;3.37;100.00
43436;BME280;36399;51.444;-2.018;2023-01-28T19:05:09;102314.84;;;3.39;100.00
43436;BME280;36399;51.444;-2.018;2023-01-28T19:07:35;102313.06;;;3.27;100.00
43436;BME280;36399;51.444;-2.018;2023-01-28T19:10:02;102319.75;;;3.23;100.00
43436;BME280;36399;51.444;-2.018;2023-01-28T19:12:28;102312.84;;;3.24;100.00
43436;BME280;36399;51.444;-2.018;2023-01-28T19:14:55;102327.53;;;3.23;100.00
43436;BME280;36399;51.444;-2.018;2023-01-28T19:17:22;102325.03;;;3.25;100.00
43436;BME280;36399;51.444;-2.018;2023-01-28T19:19:48;102327.97;;;3.17;100.00
43436;BME280;36399;51.444;-2.018;2023-01-28T19:22:16;102331.25;;;3.15;100.00
43436;BME280;36399;51.444;-2.018;2023-01-28T19:24:42;102329.34;;;3.12;100.00
43436;BME280;36399;51.444;-2.018;2023-01-28T19:27:08;102333.59;;;3.12;100.00
43436;BME280;36399;51.444;-2.018;2023-01-28T19:29:34;102330.09;;;3.11;100.00
43436;BME280;36399;51.444;-2.018;2023-01-28T19:32:00;102325.81;;;3.12;100.00
43436;BME280;36399;51.444;-2.018;2023-01-28T19:34:26;102330.69;;;3.07;100.00
43436;BME280;36399;51.444;-2.018;2023-01-28T19:36:52;102327.06;;;3.05;100.00
43436;BME280;36399;51.444;-2.018;2023-01-28T19:39:18;102323.69;;;3.06;100.00
43436;BME280;36399;51.444;-2.018;2023-01-28T19:41:44;102318.03;;;3.12;100.00
43436;BME280;36399;51.444;-2.018;2023-01-28T19:44:10;102312.72;;;3.10;100.00
43436;BME280;36399;51.444;-2.018;2023-01-28T19:46:36;102316.00;;;3.08;100.00
43436;BME280;36399;51.444;-2.018;2023-01-28T19:49:02;102315.09;;;3.07;100.00
43436;BME280;36399;51.444;-2.018;2023-01-28T19:51:28;102306.31;;;3.05;100.00
43436;BME280;36399;51.444;-2.018;2023-01-28T19:53:55;102308.13;;;3.06;100.00
43436;BME280;36399;51.444;-2.018;2023-01-28T19:56:22;102310.59;;;3.05;100.00
43436;BME280;36399;51.444;-2.018;2023-01-28T19:58:49;102318.28;;;3.03;100.00
43436;BME280;36399;51.444;-2.018;2023-01-28T20:01:18;102320.06;;;3.04;100.00
43436;BME280;36399;51.444;-2.018;2023-01-28T20:03:49;102329.44;;;3.02;100.00
43436;BME280;36399;51.444;-2.018;2023-01-28T20:06:15;102324.16;;;3.01;100.00
43436;BME280;36399;51.444;-2.018;2023-01-28T20:08:42;102324.38;;;3.04;100.00
43436;BME280;36399;51.444;-2.018;2023-01-28T20:11:14;102319.63;;;2.98;100.00
43436;BME280;36399;51.444;-2.018;2023-01-28T20:13:42;102333.41;;;2.97;100.00
43436;BME280;36399;51.444;-2.018;2023-01-28T20:16:15;102336.00;;;2.97;100.00
43436;BME280;36399;51.444;-2.018;2023-01-28T20:18:42;102336.78;;;2.96;100.00
43436;BME280;36399;51.444;-2.018;2023-01-28T20:21:08;102340.63;;;3.01;100.00
43436;BME280;36399;51.444;-2.018;2023-01-28T20:23:34;102338.03;;;3.01;100.00
43436;BME280;36399;51.444;-2.018;2023-01-28T20:26:00;102331.69;;;3.09;100.00
43436;BME280;36399;51.444;-2.018;2023-01-28T20:28:26;102335.88;;;3.07;100.00
43436;BME280;36399;51.444;-2.018;2023-01-28T20:30:52;102340.84;;;3.04;100.00
43436;BME280;36399;51.444;-2.018;2023-01-28T20:33:19;102350.19;;;3.02;100.00
43436;BME280;36399;51.444;-2.018;2023-01-28T20:35:45;102343.56;;;3.17;100.00
43436;BME280;36399;51.444;-2.018;2023-01-28T20:38:12;102349.97;;;3.11;100.00
43436;BME280;36399;51.444;-2.018;2023-01-28T20:40:40;102351.22;;;3.04;100.00
43436;BME280;36399;51.444;-2.018;2023-01-28T20:43:07;102354.38;;;3.00;100.00
43436;BME280;36399;51.444;-2.018;2023-01-28T20:45:34;102356.63;;;2.96;100.00
43436;BME280;36399;51.444;-2.018;2023-01-28T20:48:00;102359.91;;;3.05;100.00
43436;BME280;36399;51.444;-2.018;2023-01-28T20:50:26;102357.75;;;2.99;100.00
43436;BME280;36399;51.444;-2.018;2023-01-28T20:52:52;102355.16;;;2.99;100.00
43436;BME280;36399;51.444;-2.018;2023-01-28T20:55:18;102353.03;;;3.05;100.00
43436;BME280;36399;51.444;-2.018;2023-01-28T20:57:43;102354.38;;;3.00;100.00
43436;BME280;36399;51.444;-2.018;2023-01-28T21:00:10;102355.28;;;3.01;100.00
43436;BME280;36399;51.444;-2.018;2023-01-28T21:02:38;102354.72;;;3.05;100.00
43436;BME280;36399;51.444;-2.018;2023-01-28T21:05:05;102346.13;;;3.06;100.00
43436;BME280;36399;51.444;-2.018;2023-01-28T21:07:31;102352.00;;;3.03;100.00
43436;BME280;36399;51.444;-2.018;2023-01-28T21:09:57;102355.28;;;3.01;100.00
43436;BME280;36399;51.444;-2.018;2023-01-28T21:12:23;102348.72;;;3.06;100.00
43436;BME280;36399;51.444;-2.018;2023-01-28T21:14:49;102343.97;;;3.12;100.00
43436;BME280;36399;51.444;-2.018;2023-01-28T21:17:15;102343.34;;;3.14;100.00
43436;BME280;36399;51.444;-2.018;2023-01-28T21:19:41;102343.97;;;3.12;100.00
43436;BME280;36399;51.444;-2.018;2023-01-28T21:22:07;102342.63;;;3.05;100.00
43436;BME280;36399;51.444;-2.018;2023-01-28T21:24:33;102343.66;;;3.07;100.00
43436;BME280;36399;51.444;-2.018;2023-01-28T21:26:59;102344.91;;;3.12;100.00
43436;BME280;36399;51.444;-2.018;2023-01-28T21:29:25;102349.97;;;3.11;100.00
43436;BME280;36399;51.444;-2.018;2023-01-28T21:31:51;102344.44;;;3.06;100.00
43436;BME280;36399;51.444;-2.018;2023-01-28T21:34:17;102335.66;;;3.04;100.00
43436;BME280;36399;51.444;-2.018;2023-01-28T21:36:43;102332.72;;;3.00;100.00
43436;BME280;36399;51.444;-2.018;2023-01-28T21:39:09;102339.50;;;2.98;100.00
43436;BME280;36399;51.444;-2.018;2023-01-28T21:41:35;102353.34;;;2.98;100.00
43436;BME280;36399;51.444;-2.018;2023-01-28T21:44:01;102355.97;;;2.98;100.00
43436;BME280;36399;51.444;-2.018;2023-01-28T21:46:29;102350.78;;;2.98;100.00
43436;BME280;36399;51.444;-2.018;2023-01-28T21:49:00;102348.28;;;3.00;100.00
43436;BME280;36399;51.444;-2.018;2023-01-28T21:51:27;102353.34;;;2.98;100.00
43436;BME280;36399;51.444;-2.018;2023-01-28T21:54:11;102353.81;;;3.04;100.00
43436;BME280;36399;51.444;-2.018;2023-01-28T21:56:38;102345.69;;;3.11;100.00
43436;BME280;36399;51.444;-2.018;2023-01-28T21:59:04;102349.63;;;3.06;100.00
43436;BME280;36399;51.444;-2.018;2023-01-28T22:01:48;102346.47;;;3.10;100.00
43436;BME280;36399;51.444;-2.018;2023-01-28T22:04:14;102335.19;;;3.22;100.00
43436;BME280;36399;51.444;-2.018;2023-01-28T22:06:41;102331.81;;;3.11;100.00
43436;BME280;36399;51.444;-2.018;2023-01-28T22:09:08;102334.06;;;3.06;100.00
43436;BME280;36399;51.444;-2.018;2023-01-28T22:11:42;102329.09;;;3.09;100.00
43436;BME280;36399;51.444;-2.018;2023-01-28T22:14:09;102335.66;;;3.04;100.00
43436;BME280;36399;51.444;-2.018;2023-01-28T22:16:35;102332.25;;;3.05;100.00
43436;BME280;36399;51.444;-2.018;2023-01-28T22:19:01;102336.34;;;3.13;100.00
43436;BME280;36399;51.444;-2.018;2023-01-28T22:21:28;102332.47;;;3.08;100.00
43436;BME280;36399;51.444;-2.018;2023-01-28T22:23:53;102319.84;;;3.01;100.00
43436;BME280;36399;51.444;-2.018;2023-01-28T22:26:19;102319.63;;;2.98;100.00
43436;BME280;36399;51.444;-2.018;2023-01-28T22:28:45;102323.03;;;2.97;100.00
43436;BME280;36399;51.444;-2.018;2023-01-28T22:31:14;102331.59;;;2.96;100.00
43436;BME280;36399;51.444;-2.018;2023-01-28T22:33:41;102331.59;;;2.96;100.00
43436;BME280;36399;51.444;-2.018;2023-01-28T22:36:11;102338.47;;;2.96;100.00
43436;BME280;36399;51.444;-2.018;2023-01-28T22:38:38;102331.59;;;2.96;100.00
43436;BME280;36399;51.444;-2.018;2023-01-28T22:41:08;102331.47;;;2.95;100.00
43436;BME280;36399;51.444;-2.018;2023-01-28T22:43:35;102336.78;;;2.96;100.00
43436;BME280;36399;51.444;-2.018;2023-01-28T22:46:02;102329.00;;;2.96;100.00
43436;BME280;36399;51.444;-2.018;2023-01-28T22:48:29;102314.44;;;2.98;100.00
43436;BME280;36399;51.444;-2.018;2023-01-28T22:51:00;102309.69;;;3.04;100.00
43436;BME280;36399;51.444;-2.018;2023-01-28T22:53:30;102307.91;;;3.03;100.00
43436;BME280;36399;51.444;-2.018;2023-01-28T22:55:56;102308.13;;;3.06;100.00
43436;BME280;36399;51.444;-2.018;2023-01-28T22:58:22;102303.25;;;3.11;100.00
43436;BME280;36399;51.444;-2.018;2023-01-28T23:00:48;102296.94;;;3.07;100.00
43436;BME280;36399;51.444;-2.018;2023-01-28T23:03:14;102301.13;;;3.05;100.00
43436;BME280;36399;51.444;-2.018;2023-01-28T23:05:40;102302.50;;;3.00;100.00
43436;BME280;36399;51.444;-2.018;2023-01-28T23:08:06;102302.03;;;2.94;100.00
43436;BME280;36399;51.444;-2.018;2023-01-28T23:10:39;102309.59;;;2.91;100.00
43436;BME280;36399;51.444;-2.018;2023-01-28T23:13:06;102299.13;;;2.90;100.00
43436;BME280;36399;51.444;-2.018;2023-01-28T23:15:32;102304.31;;;2.90;100.00
43436;BME280;36399;51.444;-2.018;2023-01-28T23:18:20;102305.66;;;2.84;100.00
43436;BME280;36399;51.444;-2.018;2023-01-28T23:24:14;102304.31;;;2.78;100.00
43436;BME280;36399;51.444;-2.018;2023-01-28T23:26:54;102306.81;;;2.76;100.00
43436;BME280;36399;51.444;-2.018;2023-01-28T23:29:25;102300.72;;;2.76;100.00
43436;BME280;36399;51.444;-2.018;2023-01-28T23:32:11;102298.91;;;2.75;100.00
43436;BME280;36399;51.444;-2.018;2023-01-28T23:34:40;102302.50;;;2.77;100.00
43436;BME280;36399;51.444;-2.018;2023-01-28T23:37:07;102296.66;;;2.79;100.00
43436;BME280;36399;51.444;-2.018;2023-01-28T23:39:34;102295.75;;;2.79;100.00
43436;BME280;36399;51.444;-2.018;2023-01-28T23:42:14;102294.38;;;2.84;100.00